Time;durP1;ratioP1;P1;durP2;ratioP2;P2;SDS_P1;SDS_P2;PMS_P1;PMS_P2;Temp;Humidity;BMP_temperature;BMP_pressure;BME280_temperature;BME280_humidity;BME280_pressure;Samples;Min_cycle;Max_cycle;Signal;HPM_P1;HPM_P2
2023/07/16 00:01:28;;;;;;;11.77;4.45;;;16.00;99.90;;;;;;4977755;28;21189;-91
2023/07/16 00:03:54;;;;;;;11.85;4.20;;;15.90;99.90;;;;;;4975911;28;20459;-92
2023/07/16 00:06:20;;;;;;;10.97;3.53;;;15.80;99.90;;;;;;4977265;28;20421;-92
2023/07/16 00:08:45;;;;;;;13.27;4.05;;;15.90;99.90;;;;;;4977328;28;20855;-91
2023/07/16 00:11:11;;;;;;;10.77;3.63;;;16.20;99.90;;;;;;4975504;28;20406;-92
2023/07/16 00:13:37;;;;;;;10.95;3.70;;;15.80;99.90;;;;;;4977754;28;20799;-91
2023/07/16 00:16:03;;;;;;;9.48;2.90;;;15.70;99.90;;;;;;4975054;28;20427;-92
2023/07/16 00:18:29;;;;;;;10.52;3.40;;;15.60;99.90;;;;;;4981086;28;20405;-91
2023/07/16 00:20:54;;;;;;;11.70;3.27;;;15.80;99.90;;;;;;4993575;28;20430;-92
2023/07/16 00:23:20;;;;;;;13.23;3.13;;;15.50;99.90;;;;;;4996625;28;20414;-92
2023/07/16 00:25:46;;;;;;;9.80;3.10;;;15.70;99.90;;;;;;4995860;28;20755;-91
2023/07/16 00:28:12;;;;;;;8.83;2.77;;;15.60;99.90;;;;;;4995812;28;20447;-92
2023/07/16 00:30:37;;;;;;;8.65;2.58;;;15.30;99.90;;;;;;4996903;28;20451;-92
2023/07/16 00:33:03;;;;;;;9.83;2.47;;;15.30;99.90;;;;;;4994676;28;20437;-92
2023/07/16 00:35:29;;;;;;;11.32;2.53;;;15.50;99.90;;;;;;4997140;28;20411;-92
2023/07/16 00:37:54;;;;;;;10.10;2.30;;;15.40;99.90;;;;;;4994444;28;20414;-91
2023/07/16 00:40:20;;;;;;;9.80;2.53;;;15.10;99.90;;;;;;4996617;28;20411;-93
2023/07/16 00:42:46;;;;;;;10.93;2.73;;;15.40;99.90;;;;;;4995142;28;20419;-91
2023/07/16 00:45:14;;;;;;;9.67;2.60;;;15.50;99.90;;;;;;4996260;28;20617;-92
2023/07/16 00:47:41;;;;;;;10.68;2.90;;;15.60;99.90;;;;;;4996608;28;20798;-91
2023/07/16 00:50:08;;;;;;;10.30;2.58;;;15.40;99.90;;;;;;4994715;28;20447;-91
2023/07/16 00:52:35;;;;;;;9.35;2.30;;;15.30;99.90;;;;;;4996911;28;20770;-92
2023/07/16 00:55:00;;;;;;;10.20;2.72;;;15.40;99.90;;;;;;4994131;28;20411;-90
2023/07/16 00:57:26;;;;;;;10.87;2.67;;;15.60;99.90;;;;;;4996694;28;20989;-91
2023/07/16 00:59:52;;;;;;;8.43;2.55;;;16.00;99.90;;;;;;4994206;28;20963;-90
2023/07/16 01:02:18;;;;;;;11.40;2.70;;;15.50;99.90;;;;;;4995593;28;20426;-92
2023/07/16 01:04:43;;;;;;;9.73;2.57;;;15.50;99.90;;;;;;4995363;28;20411;-92
2023/07/16 01:07:13;;;;;;;13.20;3.05;;;15.80;99.90;;;;;;4995048;28;20411;-91
2023/07/16 01:09:42;;;;;;;12.03;3.00;;;16.00;99.90;;;;;;4996514;28;20816;-91
2023/07/16 01:12:09;;;;;;;9.23;2.65;;;15.90;99.90;;;;;;4993531;28;20403;-91
2023/07/16 01:14:35;;;;;;;11.90;2.80;;;15.90;99.90;;;;;;4995714;28;20439;-91
2023/07/16 01:17:06;;;;;;;11.50;3.20;;;15.70;99.90;;;;;;4993443;28;20490;-90
2023/07/16 01:19:33;;;;;;;11.93;3.10;;;15.70;99.90;;;;;;4995984;28;20916;-90
2023/07/16 01:22:35;;;;;;;13.25;2.88;;;15.70;99.90;;;;;;4995019;28;20929;-91
2023/07/16 01:25:36;;;;;;;10.00;2.40;;;15.10;99.90;;;;;;4993226;28;20414;-92
2023/07/16 01:28:08;;;;;;;10.83;3.20;;;15.80;99.90;;;;;;4980639;28;20502;-93
2023/07/16 01:30:39;;;;;;;11.03;2.60;;;15.70;99.90;;;;;;4994947;28;20845;-90
2023/07/16 01:33:10;;;;;;;13.95;3.33;;;15.50;99.90;;;;;;4994517;28;20431;-92
2023/07/16 01:35:36;;;;;;;9.40;2.42;;;15.80;99.90;;;;;;4995611;28;20433;-92
2023/07/16 01:38:01;;;;;;;8.45;2.65;;;15.90;99.90;;;;;;4993206;28;20407;-92
2023/07/16 01:40:27;;;;;;;10.67;2.33;;;15.80;99.90;;;;;;4995492;28;20411;-91
2023/07/16 01:42:53;;;;;;;11.32;2.88;;;15.80;99.90;;;;;;4993401;28;20405;-93
2023/07/16 01:45:19;;;;;;;10.45;2.60;;;15.80;99.90;;;;;;4995350;28;20457;-90
2023/07/16 01:48:13;;;;;;;9.07;2.93;;;15.80;99.90;;;;;;4994664;28;20411;-92
2023/07/16 01:50:39;;;;;;;9.63;2.67;;;15.80;99.90;;;;;;4993219;28;20457;-91
2023/07/16 01:53:05;;;;;;;9.70;2.50;;;16.10;99.90;;;;;;4994504;28;20431;-91
2023/07/16 01:55:30;;;;;;;12.02;2.55;;;16.00;99.90;;;;;;4993000;28;20910;-91
2023/07/16 01:57:56;;;;;;;12.57;2.27;;;15.90;99.90;;;;;;4995567;28;20419;-93
2023/07/16 02:00:22;;;;;;;8.35;2.25;;;16.30;99.90;;;;;;4993476;28;20979;-91
2023/07/16 02:02:47;;;;;;;8.45;1.88;;;15.80;99.90;;;;;;4994566;28;20403;-92
2023/07/16 02:05:14;;;;;;;8.60;2.40;;;16.10;99.90;;;;;;4994356;28;20418;-91
2023/07/16 02:07:40;;;;;;;8.05;2.08;;;15.80;99.90;;;;;;4993721;28;20485;-91
2023/07/16 02:10:06;;;;;;;8.23;2.00;;;16.10;99.90;;;;;;4994737;28;20494;-91
2023/07/16 02:12:31;;;;;;;8.07;2.13;;;15.80;99.90;;;;;;4993234;28;20461;-90
2023/07/16 02:14:57;;;;;;;7.37;1.90;;;16.00;99.90;;;;;;4994672;28;20403;-91
2023/07/16 02:17:23;;;;;;;8.40;2.05;;;15.80;99.90;;;;;;4992280;28;20451;-91
2023/07/16 02:19:48;;;;;;;6.63;1.80;;;16.10;99.90;;;;;;4994992;28;20460;-91
2023/07/16 02:22:14;;;;;;;9.70;2.07;;;16.00;99.90;;;;;;4993108;28;20414;-90
2023/07/16 02:24:39;;;;;;;8.52;2.17;;;15.70;99.90;;;;;;4994434;28;20408;-92
2023/07/16 02:27:05;;;;;;;10.07;2.37;;;16.10;99.90;;;;;;4994335;28;20421;-90
2023/07/16 02:29:32;;;;;;;9.70;2.40;;;15.90;99.90;;;;;;4992973;28;20415;-91
2023/07/16 02:31:57;;;;;;;7.95;2.17;;;16.00;99.90;;;;;;4994226;28;20858;-91
2023/07/16 02:34:23;;;;;;;7.57;2.30;;;16.00;99.90;;;;;;4992063;28;20471;-90
2023/07/16 02:36:49;;;;;;;9.43;2.57;;;16.30;99.90;;;;;;4993861;28;20399;-91
2023/07/16 02:39:14;;;;;;;8.98;2.80;;;16.00;99.90;;;;;;4992554;28;20844;-92
2023/07/16 02:41:40;;;;;;;9.07;3.00;;;15.90;99.90;;;;;;4993833;28;20403;-91
2023/07/16 02:44:08;;;;;;;9.80;2.95;;;16.00;99.90;;;;;;4993244;28;20464;-91
2023/07/16 02:46:34;;;;;;;8.73;3.00;;;16.10;99.90;;;;;;4992676;28;21053;-92
2023/07/16 02:49:00;;;;;;;8.23;3.03;;;15.70;99.90;;;;;;4994173;28;21064;-92
2023/07/16 02:51:26;;;;;;;8.05;2.83;;;15.80;99.90;;;;;;4992224;28;21011;-90
2023/07/16 02:53:51;;;;;;;10.30;2.92;;;15.90;99.90;;;;;;4994149;28;20438;-90
2023/07/16 02:56:17;;;;;;;9.70;2.95;;;15.70;99.90;;;;;;4991717;28;20407;-91
2023/07/16 02:58:43;;;;;;;9.83;3.37;;;15.70;99.90;;;;;;4994376;28;20438;-92
2023/07/16 03:01:08;;;;;;;9.98;3.50;;;15.60;99.90;;;;;;4992396;28;20447;-92
2023/07/16 03:03:34;;;;;;;11.73;3.50;;;16.20;99.90;;;;;;4992155;28;20442;-91
2023/07/16 03:06:00;;;;;;;9.57;3.53;;;15.60;99.90;;;;;;4993779;28;20455;-91
2023/07/16 03:08:29;;;;;;;8.57;3.40;;;15.80;99.90;;;;;;4992530;28;20451;-91
2023/07/16 03:10:56;;;;;;;12.35;4.05;;;15.90;99.90;;;;;;4993753;28;20446;-90
2023/07/16 03:13:22;;;;;;;8.00;3.63;;;15.30;99.90;;;;;;4991675;28;20930;-92
2023/07/16 03:15:47;;;;;;;10.48;3.78;;;16.30;99.90;;;;;;4993890;28;20444;-92
2023/07/16 03:18:13;;;;;;;9.82;3.80;;;15.70;99.90;;;;;;4992389;28;20414;-91
2023/07/16 03:20:39;;;;;;;9.57;3.77;;;15.60;99.90;;;;;;4994004;28;20415;-92
2023/07/16 03:23:04;;;;;;;8.93;3.58;;;15.60;99.90;;;;;;4993144;28;20416;-92
2023/07/16 03:25:30;;;;;;;7.70;3.60;;;16.00;99.90;;;;;;4992000;28;20747;-91
2023/07/16 03:27:56;;;;;;;9.80;3.60;;;15.80;99.90;;;;;;4995229;28;20493;-90
2023/07/16 03:30:21;;;;;;;9.97;3.80;;;15.80;99.90;;;;;;5011527;28;20444;-92
2023/07/16 03:32:47;;;;;;;12.23;4.40;;;15.80;99.90;;;;;;5013567;28;20863;-92
2023/07/16 03:35:13;;;;;;;10.63;3.97;;;15.70;99.90;;;;;;5010712;28;20943;-91
2023/07/16 03:37:38;;;;;;;10.37;4.00;;;15.70;99.90;;;;;;5013721;28;20982;-91
2023/07/16 03:40:17;;;;;;;10.93;4.30;;;16.00;99.90;;;;;;5011168;28;20405;-93
2023/07/16 03:42:43;;;;;;;10.63;3.85;;;15.70;99.90;;;;;;5010811;28;20827;-90
2023/07/16 03:45:10;;;;;;;11.90;3.97;;;15.80;99.90;;;;;;5011441;28;20484;-91
2023/07/16 03:47:36;;;;;;;10.27;3.88;;;15.90;99.90;;;;;;5009868;28;20409;-89
2023/07/16 03:50:02;;;;;;;12.63;4.38;;;15.80;99.90;;;;;;5013144;28;20965;-90
2023/07/16 03:52:28;;;;;;;10.52;4.10;;;15.80;99.90;;;;;;5011353;28;20496;-91
2023/07/16 03:54:55;;;;;;;7.88;3.95;;;15.90;99.90;;;;;;5013501;28;20424;-91
2023/07/16 03:57:21;;;;;;;11.00;4.15;;;16.30;99.90;;;;;;5012108;28;20420;-92
2023/07/16 03:59:46;;;;;;;9.45;4.28;;;16.40;99.90;;;;;;5012378;28;20421;-91
2023/07/16 04:02:12;;;;;;;11.82;4.53;;;16.00;99.90;;;;;;5012665;28;20413;-91
2023/07/16 04:04:38;;;;;;;11.07;4.50;;;16.10;99.90;;;;;;5011093;28;20522;-90
2023/07/16 04:07:04;;;;;;;11.37;4.80;;;16.30;99.90;;;;;;5012976;28;20456;-92
2023/07/16 04:09:29;;;;;;;11.63;5.35;;;16.00;99.90;;;;;;5014311;28;20407;-91
2023/07/16 04:11:55;;;;;;;11.73;5.00;;;16.60;99.90;;;;;;4993600;28;20910;-91
2023/07/16 04:14:21;;;;;;;10.70;4.90;;;16.10;99.90;;;;;;5002414;28;20463;-88
2023/07/16 04:16:46;;;;;;;11.55;5.57;;;16.10;99.90;;;;;;5016271;28;20413;-90
2023/07/16 04:19:12;;;;;;;11.30;5.13;;;16.60;99.90;;;;;;5015497;28;20416;-91
2023/07/16 04:21:39;;;;;;;11.68;5.05;;;16.00;99.90;;;;;;5015049;28;20447;-91
2023/07/16 04:24:05;;;;;;;12.07;5.25;;;16.40;99.90;;;;;;5008017;28;20414;-92
2023/07/16 04:26:31;;;;;;;11.40;5.10;;;16.20;99.90;;;;;;4994536;28;20411;-92
2023/07/16 04:28:57;;;;;;;12.15;5.40;;;16.50;99.90;;;;;;5003260;28;20451;-92
2023/07/16 04:31:23;;;;;;;11.13;5.73;;;16.30;99.90;;;;;;5014296;28;20504;-90
2023/07/16 04:33:48;;;;;;;11.75;5.03;;;16.10;99.90;;;;;;4999668;28;20443;-91
2023/07/16 04:36:15;;;;;;;12.82;5.60;;;16.70;99.90;;;;;;4994997;28;20411;-91
2023/07/16 04:38:41;;;;;;;12.35;5.90;;;16.90;99.90;;;;;;4995561;28;20415;-89
2023/07/16 04:41:06;;;;;;;12.25;5.40;;;16.80;99.90;;;;;;4996454;28;20929;-90
2023/07/16 04:43:32;;;;;;;13.23;6.13;;;16.80;99.90;;;;;;4994484;28;20498;-91
2023/07/16 04:45:57;;;;;;;11.23;6.57;;;16.70;99.90;;;;;;4996227;28;20411;-92
2023/07/16 04:48:23;;;;;;;13.03;5.90;;;16.60;99.90;;;;;;4994403;28;20407;-92
2023/07/16 04:50:52;;;;;;;13.55;5.78;;;16.70;99.90;;;;;;4996645;28;20446;-92
2023/07/16 04:53:18;;;;;;;12.82;6.03;;;16.60;99.90;;;;;;4984432;28;20436;-91
2023/07/16 04:55:44;;;;;;;12.13;6.13;;;16.80;99.90;;;;;;4986734;28;20407;-91
2023/07/16 04:58:12;;;;;;;10.17;5.73;;;17.20;99.90;;;;;;4984078;28;20404;-92
2023/07/16 05:00:38;;;;;;;11.27;5.80;;;16.90;99.90;;;;;;4983862;28;20473;-91
2023/07/16 05:03:03;;;;;;;11.10;6.07;;;17.00;99.90;;;;;;4984231;28;20448;-91
2023/07/16 05:05:29;;;;;;;11.37;6.03;;;17.00;99.90;;;;;;4986568;28;20415;-91
2023/07/16 05:07:55;;;;;;;12.38;5.78;;;17.10;99.90;;;;;;4995771;28;20410;-92
2023/07/16 05:10:21;;;;;;;13.40;6.33;;;17.40;99.90;;;;;;5008568;28;20417;-91
2023/07/16 05:12:46;;;;;;;15.68;6.60;;;17.60;99.90;;;;;;5015341;28;20444;-92
2023/07/16 05:15:12;;;;;;;13.93;6.25;;;17.60;99.90;;;;;;5014102;28;20753;-92
2023/07/16 05:17:38;;;;;;;11.97;6.43;;;17.50;99.90;;;;;;5010966;28;20418;-93
2023/07/16 05:20:04;;;;;;;14.40;6.15;;;17.30;99.90;;;;;;4987976;28;20414;-93
2023/07/16 05:22:30;;;;;;;14.85;7.78;;;17.30;99.90;;;;;;4992292;28;20437;-92
2023/07/16 05:24:56;;;;;;;16.45;8.15;;;17.30;99.90;;;;;;4983205;28;20904;-92
2023/07/16 05:27:21;;;;;;;16.07;8.10;;;16.80;99.90;;;;;;4990514;28;20490;-94
2023/07/16 05:29:48;;;;;;;16.95;9.70;;;16.80;99.90;;;;;;4996848;28;20411;-91
2023/07/16 05:32:14;;;;;;;18.55;9.15;;;16.70;99.90;;;;;;5006470;28;20526;-92
2023/07/16 05:34:39;;;;;;;19.58;9.68;;;16.20;99.90;;;;;;4990841;28;20902;-95
2023/07/16 05:37:05;;;;;;;15.32;8.27;;;16.60;99.90;;;;;;4993284;28;20417;-93
2023/07/16 05:39:31;;;;;;;16.37;8.03;;;16.00;99.90;;;;;;4994335;28;20434;-94
2023/07/16 05:41:56;;;;;;;17.08;8.32;;;16.30;99.90;;;;;;4994831;28;20422;-94
2023/07/16 05:44:22;;;;;;;18.58;7.95;;;16.20;99.90;;;;;;4978735;28;20403;-94
2023/07/16 05:46:48;;;;;;;15.83;7.67;;;16.30;99.90;;;;;;4975925;28;20499;-92
2023/07/16 05:49:14;;;;;;;13.98;6.20;;;16.10;99.90;;;;;;4973227;28;20484;-91
2023/07/16 05:51:39;;;;;;;12.27;6.90;;;16.10;99.90;;;;;;5003746;23;20415;-93
2023/07/16 05:54:06;;;;;;;13.80;6.90;;;16.50;99.90;;;;;;4991506;28;20483;-92
2023/07/16 05:56:32;;;;;;;16.25;7.68;;;16.30;99.90;;;;;;5009749;28;20413;-93
2023/07/16 05:58:57;;;;;;;13.07;6.57;;;16.40;99.90;;;;;;5010068;28;21155;-92
2023/07/16 06:01:25;;;;;;;13.88;6.10;;;16.70;99.90;;;;;;5003246;28;20407;-95
2023/07/16 06:03:50;;;;;;;13.52;6.72;;;16.60;99.90;;;;;;5010223;28;20435;-95
2023/07/16 06:06:16;;;;;;;11.90;6.20;;;16.60;99.90;;;;;;5013986;28;21199;-94
2023/07/16 06:08:42;;;;;;;14.93;6.87;;;17.10;99.90;;;;;;5000886;28;20919;-94
2023/07/16 06:11:10;;;;;;;13.70;7.32;;;17.10;99.90;;;;;;4996522;28;20424;-95
2023/07/16 06:13:42;;;;;;;13.68;7.07;;;16.60;99.90;;;;;;4996826;28;20458;-94
2023/07/16 06:16:08;;;;;;;16.02;7.28;;;17.10;99.90;;;;;;5007452;28;20505;-95
2023/07/16 06:18:33;;;;;;;16.53;7.57;;;17.20;99.90;;;;;;4987388;28;20488;-93
2023/07/16 06:20:59;;;;;;;13.15;6.75;;;16.80;99.90;;;;;;4986797;28;20408;-95
2023/07/16 06:23:25;;;;;;;14.32;5.70;;;17.10;99.90;;;;;;4979300;28;20427;-93
2023/07/16 06:25:56;;;;;;;14.98;6.70;;;17.10;99.90;;;;;;4955192;28;20906;-93
2023/07/16 06:28:30;;;;;;;13.88;6.38;;;16.60;99.90;;;;;;4972716;28;20455;-91
2023/07/16 06:30:56;;;;;;;15.35;6.55;;;16.70;99.90;;;;;;4989775;28;20508;-94
2023/07/16 06:33:22;;;;;;;15.82;6.95;;;17.30;99.90;;;;;;4990404;28;20484;-94
2023/07/16 06:35:48;;;;;;;12.57;6.82;;;17.40;99.90;;;;;;4988877;28;20496;-94
2023/07/16 06:38:14;;;;;;;12.20;6.17;;;18.20;99.90;;;;;;4988658;28;20408;-93
2023/07/16 06:40:47;;;;;;;14.13;6.10;;;18.70;99.90;;;;;;4970808;28;20450;-93
2023/07/16 06:43:12;;;;;;;13.55;6.13;;;18.30;99.90;;;;;;4971748;28;20469;-92
2023/07/16 06:45:38;;;;;;;10.93;5.73;;;18.10;99.90;;;;;;4990025;28;20421;-93
2023/07/16 06:48:04;;;;;;;13.05;5.93;;;18.80;99.90;;;;;;4989022;28;20553;-91
2023/07/16 06:50:29;;;;;;;14.02;6.13;;;18.20;99.90;;;;;;4990056;28;20421;-91
2023/07/16 06:52:55;;;;;;;12.47;6.03;;;18.20;99.90;;;;;;4988219;28;20432;-94
2023/07/16 06:55:21;;;;;;;13.63;6.13;;;18.30;99.90;;;;;;4974183;28;20942;-93
2023/07/16 06:57:46;;;;;;;13.33;6.23;;;18.40;99.90;;;;;;4972626;28;20405;-92
2023/07/16 07:00:12;;;;;;;12.73;5.82;;;18.10;99.90;;;;;;4974093;28;20471;-92
2023/07/16 07:02:38;;;;;;;12.23;5.97;;;18.00;99.90;;;;;;4973170;28;20450;-94
2023/07/16 07:05:04;;;;;;;10.50;6.30;;;18.30;99.90;;;;;;4973117;28;20425;-92
2023/07/16 07:07:33;;;;;;;12.45;5.90;;;18.20;99.90;;;;;;4973561;28;20409;-94
2023/07/16 07:09:59;;;;;;;12.63;5.72;;;18.60;99.90;;;;;;4972786;28;20416;-93
2023/07/16 07:12:24;;;;;;;12.33;5.20;;;18.40;99.90;;;;;;4973907;28;20409;-93
2023/07/16 07:14:50;;;;;;;13.70;5.57;;;18.80;99.90;;;;;;4972013;28;20913;-92
2023/07/16 07:17:16;;;;;;;12.80;5.07;;;18.60;99.90;;;;;;4974013;28;20396;-92
2023/07/16 07:19:43;;;;;;;14.38;5.55;;;18.50;99.90;;;;;;4963499;28;20410;-91
2023/07/16 07:22:08;;;;;;;12.70;5.60;;;18.60;99.90;;;;;;4964101;28;20409;-92
2023/07/16 07:24:34;;;;;;;11.87;4.93;;;19.10;99.90;;;;;;4973288;28;20486;-90
2023/07/16 07:27:00;;;;;;;11.82;5.35;;;19.10;99.90;;;;;;4972585;28;20424;-93
2023/07/16 07:29:25;;;;;;;11.00;4.90;;;19.40;99.90;;;;;;4964686;28;20484;-91
2023/07/16 07:31:52;;;;;;;11.73;5.28;;;19.60;99.90;;;;;;4953292;28;20422;-92
2023/07/16 07:34:18;;;;;;;10.30;5.23;;;19.40;99.90;;;;;;4954691;28;20434;-91
2023/07/16 07:36:44;;;;;;;12.75;5.32;;;19.30;99.90;;;;;;4953583;28;20514;-92
2023/07/16 07:39:10;;;;;;;11.15;5.20;;;19.80;99.90;;;;;;4954129;28;20794;-94
2023/07/16 07:41:36;;;;;;;10.40;4.97;;;19.40;99.90;;;;;;4953890;28;20486;-93
2023/07/16 07:44:01;;;;;;;11.15;5.88;;;19.10;99.90;;;;;;4953334;28;20414;-91
2023/07/16 07:46:27;;;;;;;11.47;6.07;;;19.00;99.90;;;;;;4953993;28;20414;-92
2023/07/16 07:48:53;;;;;;;11.05;5.57;;;19.20;99.90;;;;;;4953098;28;20414;-92
2023/07/16 07:51:20;;;;;;;10.13;5.65;;;19.40;99.90;;;;;;4957352;28;20520;-93
2023/07/16 07:53:45;;;;;;;11.20;6.37;;;19.40;99.90;;;;;;4956181;28;20548;-93
2023/07/16 07:56:11;;;;;;;12.75;6.20;;;19.80;99.90;;;;;;4958302;28;20459;-91
2023/07/16 07:58:37;;;;;;;11.43;5.82;;;19.50;99.90;;;;;;4956763;28;20413;-91
2023/07/16 08:01:07;;;;;;;9.93;5.73;;;19.50;99.90;;;;;;4973234;28;20515;-93
2023/07/16 08:03:33;;;;;;;11.02;5.72;;;19.30;99.90;;;;;;4957710;28;20418;-94
2023/07/16 08:05:59;;;;;;;11.63;5.82;;;19.40;99.90;;;;;;4956856;28;20506;-91
2023/07/16 08:08:25;;;;;;;10.95;5.50;;;19.80;99.90;;;;;;4957711;28;20842;-93
2023/07/16 08:10:50;;;;;;;9.43;5.10;;;19.60;99.90;;;;;;4956706;28;20743;-93
2023/07/16 08:13:36;;;;;;;11.13;5.80;;;19.90;99.90;;;;;;4959942;28;20489;-95
2023/07/16 08:16:09;;;;;;;11.10;5.20;;;20.00;99.90;;;;;;4965434;28;20805;-94
2023/07/16 08:18:40;;;;;;;9.32;4.95;;;19.90;99.90;;;;;;4965111;28;21126;-94
2023/07/16 08:21:19;;;;;;;10.88;5.90;;;20.20;99.90;;;;;;4959608;28;20773;-94
2023/07/16 08:23:51;;;;;;;10.85;5.35;;;20.30;99.90;;;;;;4963441;28;20445;-93
2023/07/16 08:26:39;;;;;;;10.77;5.75;;;20.40;99.90;;;;;;4968023;28;20514;-95
2023/07/16 08:29:23;;;;;;;11.00;5.38;;;20.00;99.90;;;;;;4967663;28;20422;-95
2023/07/16 08:32:03;;;;;;;10.95;5.75;;;20.30;99.90;;;;;;4960226;28;20455;-95
2023/07/16 08:34:45;;;;;;;9.43;5.55;;;20.40;99.90;;;;;;4994950;28;20504;-94
2023/07/16 08:37:10;;;;;;;10.53;5.37;;;20.70;99.90;;;;;;4976210;28;20411;-93
2023/07/16 08:39:36;;;;;;;11.73;6.00;;;21.10;99.90;;;;;;4956573;28;20513;-93
2023/07/16 08:42:02;;;;;;;11.07;5.50;;;21.00;99.90;;;;;;4956793;28;20430;-94
2023/07/16 08:44:29;;;;;;;11.93;5.80;;;21.30;99.90;;;;;;4955456;28;20407;-93
2023/07/16 08:46:55;;;;;;;10.02;5.30;;;21.60;99.90;;;;;;4956612;28;20836;-92
2023/07/16 08:49:22;;;;;;;10.43;5.78;;;21.60;99.90;;;;;;4955876;28;20498;-93
2023/07/16 08:51:49;;;;;;;9.68;5.53;;;22.00;99.90;;;;;;4958537;28;20410;-93
2023/07/16 08:54:17;;;;;;;12.32;6.10;;;21.90;99.90;;;;;;4990488;28;20480;-94
2023/07/16 08:56:44;;;;;;;10.18;5.45;;;21.80;99.90;;;;;;4992274;28;20512;-94
2023/07/16 08:59:10;;;;;;;10.97;6.30;;;21.80;99.90;;;;;;4991463;28;20455;-93
2023/07/16 09:01:37;;;;;;;10.13;5.72;;;21.80;99.90;;;;;;4991123;28;20501;-94
2023/07/16 09:04:03;;;;;;;12.52;5.38;;;21.70;99.90;;;;;;4991043;28;20424;-92
2023/07/16 09:06:28;;;;;;;9.80;5.32;;;21.40;99.90;;;;;;4970001;28;20415;-91
2023/07/16 09:08:55;;;;;;;9.87;5.40;;;21.30;99.90;;;;;;4971605;28;20418;-93
2023/07/16 09:11:22;;;;;;;11.70;5.80;;;20.60;99.90;;;;;;4969700;28;20406;-93
2023/07/16 09:13:54;;;;;;;10.37;5.67;;;20.40;99.90;;;;;;4972512;28;20430;-93
2023/07/16 09:16:20;;;;;;;12.07;6.22;;;19.80;99.90;;;;;;4971391;28;20462;-94
2023/07/16 09:18:47;;;;;;;10.40;5.40;;;19.80;99.90;;;;;;4971770;28;20940;-92
2023/07/16 09:21:13;;;;;;;9.73;5.00;;;20.40;99.90;;;;;;4989216;28;20476;-93
2023/07/16 09:23:41;;;;;;;12.02;5.20;;;20.10;99.90;;;;;;4990562;28;20492;-94
2023/07/16 09:26:07;;;;;;;9.40;4.90;;;20.00;99.90;;;;;;4975045;28;20421;-93
2023/07/16 09:28:33;;;;;;;9.68;4.82;;;20.70;99.90;;;;;;4970974;28;20832;-92
2023/07/16 09:31:07;;;;;;;10.85;5.28;;;20.90;99.90;;;;;;4972983;28;20458;-94
2023/07/16 09:33:33;;;;;;;8.85;4.32;;;21.40;99.90;;;;;;4970548;28;20442;-94
2023/07/16 09:35:59;;;;;;;9.50;4.82;;;21.50;99.90;;;;;;4972149;28;20443;-92
2023/07/16 09:38:27;;;;;;;9.48;4.78;;;21.60;99.90;;;;;;5008004;28;20411;-92
2023/07/16 09:40:56;;;;;;;10.45;4.70;;;21.50;99.90;;;;;;5010295;28;20421;-93
2023/07/16 09:43:22;;;;;;;9.38;4.35;;;21.20;99.90;;;;;;5010053;28;20501;-92
2023/07/16 09:45:47;;;;;;;9.73;4.70;;;21.60;99.90;;;;;;5009850;28;20552;-94
2023/07/16 09:48:14;;;;;;;8.93;4.67;;;21.20;99.90;;;;;;5010553;28;20410;-93
2023/07/16 09:50:49;;;;;;;9.85;4.20;;;21.80;99.90;;;;;;5009689;28;20477;-95
2023/07/16 09:53:15;;;;;;;10.50;4.55;;;22.10;99.90;;;;;;5009908;28;20451;-93
2023/07/16 09:55:44;;;;;;;9.13;4.28;;;21.50;99.90;;;;;;5010001;28;20788;-95
2023/07/16 09:58:11;;;;;;;9.38;4.85;;;21.40;99.90;;;;;;5009820;28;20442;-93
2023/07/16 10:00:40;;;;;;;10.43;5.00;;;21.20;99.90;;;;;;4999598;28;20421;-93
2023/07/16 10:03:08;;;;;;;9.73;4.80;;;20.90;99.90;;;;;;4989698;28;20448;-95
2023/07/16 10:05:39;;;;;;;10.73;4.88;;;20.60;99.90;;;;;;4990603;28;20435;-91
2023/07/16 10:08:15;;;;;;;8.82;4.82;;;20.40;99.90;;;;;;4989910;28;20572;-94
2023/07/16 10:10:43;;;;;;;10.40;5.55;;;20.70;99.90;;;;;;4990813;28;20417;-94
2023/07/16 10:13:12;;;;;;;9.75;4.97;;;20.70;99.90;;;;;;4989622;28;20486;-94
2023/07/16 10:15:38;;;;;;;7.82;4.45;;;20.50;99.90;;;;;;4989415;28;20908;-94
2023/07/16 10:18:04;;;;;;;7.40;4.38;;;21.00;99.90;;;;;;4990029;28;20435;-95
2023/07/16 10:20:35;;;;;;;9.60;5.00;;;21.20;99.90;;;;;;4989292;28;20424;-94
2023/07/16 10:23:15;;;;;;;9.07;4.65;;;21.30;99.90;;;;;;4990626;28;20416;-94
2023/07/16 10:26:05;;;;;;;9.90;4.20;;;21.20;99.90;;;;;;4989667;28;20415;-90
2023/07/16 10:28:38;;;;;;;9.88;4.63;;;21.00;99.90;;;;;;4990911;28;20416;-95
2023/07/16 10:31:10;;;;;;;10.45;5.10;;;21.50;99.90;;;;;;4994203;28;20772;-94
2023/07/16 10:33:55;;;;;;;9.20;5.27;;;20.90;99.90;;;;;;4992044;28;20464;-94
2023/07/16 10:36:23;;;;;;;9.82;5.55;;;20.60;99.90;;;;;;4992085;28;20556;-93
2023/07/16 10:39:04;;;;;;;9.93;5.32;;;20.70;99.90;;;;;;4995045;28;20420;-95
2023/07/16 10:41:40;;;;;;;11.45;5.22;;;20.90;99.90;;;;;;4994508;28;20409;-95
2023/07/16 10:44:09;;;;;;;9.13;5.15;;;20.70;99.90;;;;;;4993706;28;20404;-93
2023/07/16 10:46:37;;;;;;;10.40;5.28;;;21.40;99.90;;;;;;4994267;28;20401;-95
2023/07/16 10:49:28;;;;;;;9.68;4.93;;;21.40;99.90;;;;;;4993073;28;20841;-94
2023/07/16 10:51:58;;;;;;;8.85;3.50;;;21.10;99.90;;;;;;4986036;28;20465;-94
2023/07/16 10:54:24;;;;;;;8.23;3.38;;;21.50;99.50;;;;;;4993093;28;20468;-92
2023/07/16 10:57:33;;;;;;;8.02;3.38;;;21.50;99.90;;;;;;4996273;28;20397;-94
2023/07/16 11:00:03;;;;;;;9.13;3.20;;;21.50;98.40;;;;;;4973493;28;20444;-94
2023/07/16 11:02:29;;;;;;;8.13;3.15;;;21.50;99.90;;;;;;4990858;28;20425;-94
2023/07/16 11:05:02;;;;;;;8.27;2.95;;;21.40;99.30;;;;;;4994375;28;20420;-93
2023/07/16 11:07:31;;;;;;;9.63;4.00;;;21.50;99.40;;;;;;4991424;28;20408;-91
2023/07/16 11:09:57;;;;;;;10.55;4.47;;;21.80;99.90;;;;;;4990757;28;20413;-93
2023/07/16 11:12:29;;;;;;;9.23;4.28;;;22.20;99.90;;;;;;4989317;28;20417;-94
2023/07/16 11:14:56;;;;;;;8.18;3.97;;;22.90;94.60;;;;;;4989434;28;20493;-93
2023/07/16 11:17:24;;;;;;;7.88;3.58;;;22.60;93.80;;;;;;4989452;28;20753;-93
2023/07/16 11:19:51;;;;;;;8.48;3.40;;;22.20;95.20;;;;;;4982052;28;20455;-94
2023/07/16 11:22:24;;;;;;;7.88;3.40;;;22.20;97.80;;;;;;4979035;28;20406;-95
2023/07/16 11:24:51;;;;;;;8.43;3.63;;;22.50;94.50;;;;;;4979913;28;20433;-92
2023/07/16 11:27:32;;;;;;;6.70;3.80;;;22.30;99.20;;;;;;4977706;28;20415;-93
2023/07/16 11:29:59;;;;;;;7.28;3.60;;;22.30;98.20;;;;;;4974440;28;20446;-93
2023/07/16 11:32:43;;;;;;;;;;;;;;;;;;;;;
2023/07/16 11:35:16;;;;;;;9.23;3.20;;;21.90;99.40;;;;;;4991675;28;21004;-93
2023/07/16 11:37:46;;;;;;;8.20;2.33;;;22.00;97.60;;;;;;4978426;28;20413;-94
2023/07/16 11:40:22;;;;;;;7.67;2.30;;;21.80;96.30;;;;;;4979157;28;20422;-93
2023/07/16 11:42:55;;;;;;;11.23;2.90;;;21.80;92.20;;;;;;4981224;28;20416;-94
2023/07/16 11:45:39;;;;;;;;;;;;;;;;;;;;;
2023/07/16 11:48:49;;;;;;;9.03;2.60;;;22.20;94.20;;;;;;4999478;28;20409;-93
2023/07/16 11:51:14;;;;;;;8.35;2.40;;;22.30;83.70;;;;;;4980625;28;20410;-94
2023/07/16 11:53:40;;;;;;;8.50;2.57;;;22.40;84.30;;;;;;4973612;28;20435;-93
2023/07/16 11:56:06;;;;;;;10.18;2.67;;;22.70;93.90;;;;;;4973707;28;20485;-93
2023/07/16 11:58:31;;;;;;;8.77;2.40;;;22.20;92.20;;;;;;4973352;28;20436;-93
2023/07/16 12:00:57;;;;;;;10.87;2.40;;;21.80;92.80;;;;;;4974092;28;20437;-94
2023/07/16 12:03:25;;;;;;;11.60;2.50;;;21.70;92.10;;;;;;4972351;28;20416;-94
2023/07/16 12:05:51;;;;;;;11.48;2.67;;;21.50;94.10;;;;;;4973731;28;20530;-93
2023/07/16 12:08:16;;;;;;;9.57;2.92;;;21.60;92.70;;;;;;4973257;28;20414;-93
2023/07/16 12:10:42;;;;;;;11.20;2.78;;;21.00;95.90;;;;;;4972390;28;20519;-93
2023/07/16 12:13:08;;;;;;;11.20;2.83;;;20.80;98.10;;;;;;4975780;28;20406;-93
2023/07/16 12:15:33;;;;;;;9.40;3.15;;;20.90;99.90;;;;;;4974159;28;20494;-92
2023/07/16 12:17:59;;;;;;;11.10;2.80;;;21.20;99.90;;;;;;4982388;28;20505;-94
2023/07/16 12:20:25;;;;;;;9.77;2.93;;;21.30;99.90;;;;;;4994174;28;20416;-93
2023/07/16 12:22:51;;;;;;;10.10;2.90;;;21.10;99.90;;;;;;4995751;28;20492;-94
2023/07/16 12:25:19;;;;;;;11.35;3.30;;;21.00;99.90;;;;;;4992468;28;21112;-94
2023/07/16 12:27:45;;;;;;;10.90;3.10;;;21.20;99.90;;;;;;4993601;28;20412;-93
2023/07/16 12:30:22;;;;;;;9.75;2.85;;;21.20;99.90;;;;;;4996487;28;20416;-93
2023/07/16 12:36:55;;;;;;;8.95;2.85;;;20.80;99.90;;;;;;4981135;28;20434;-93
2023/07/16 12:39:23;;;;;;;10.88;2.70;;;21.70;99.90;;;;;;4982392;28;20468;-91
2023/07/16 12:41:52;;;;;;;10.10;3.20;;;22.30;99.90;;;;;;4990396;28;20451;-94
2023/07/16 12:44:21;;;;;;;8.15;2.65;;;22.60;99.90;;;;;;4998111;28;20413;-91
2023/07/16 12:46:55;;;;;;;13.18;3.30;;;22.80;97.40;;;;;;4995041;28;20473;-94
2023/07/16 12:53:15;;;;;;;11.43;3.03;;;22.30;96.40;;;;;;5016972;28;20428;-94
2023/07/16 12:55:56;;;;;;;8.57;1.92;;;22.30;96.30;;;;;;4974986;28;20422;-93